createdAt,value
2024-05-09T00:00:46.123Z,5.18
2024-05-09T00:03:13.577Z,4.13
2024-05-09T00:05:41.658Z,3.83
2024-05-09T00:08:10.506Z,4.13
2024-05-09T00:10:39.885Z,3.53
2024-05-09T00:13:08.641Z,3.88
2024-05-09T00:15:36.654Z,4.32
2024-05-09T00:26:10.695Z,3.92
2024-05-09T00:28:38.072Z,4.35
2024-05-09T00:31:05.598Z,4.85
2024-05-09T00:33:33.063Z,4.28
2024-05-09T00:36:03.762Z,4.13
2024-05-09T00:38:31.116Z,4.22
2024-05-09T00:40:58.585Z,4.20
2024-05-09T00:43:25.933Z,4.38
2024-05-09T00:46:03.554Z,4.95
2024-05-09T00:48:34.452Z,5.00
2024-05-09T00:51:03.268Z,4.35
2024-05-09T00:53:31.597Z,4.90
2024-05-09T00:55:59.326Z,4.43
2024-05-09T00:58:30.774Z,4.78
2024-05-09T01:01:01.144Z,5.05
2024-05-09T01:03:28.647Z,5.32
2024-05-09T01:05:56.109Z,4.53
2024-05-09T01:08:23.877Z,5.10
2024-05-09T01:10:51.357Z,4.10
2024-05-09T01:13:18.731Z,4.88
2024-05-09T01:15:48.181Z,4.95
2024-05-09T01:18:15.899Z,4.18
2024-05-09T01:20:45.107Z,4.82
2024-05-09T01:23:15.760Z,5.72
2024-05-09T01:25:45.585Z,5.65
2024-05-09T01:28:13.660Z,5.78
2024-05-09T01:30:40.958Z,6.45
2024-05-09T01:33:10.363Z,5.38
2024-05-09T01:35:42.003Z,5.47
2024-05-09T01:38:13.206Z,4.78
2024-05-09T01:40:41.095Z,4.90
2024-05-09T01:43:10.094Z,5.13
2024-05-09T01:45:39.340Z,5.85
2024-05-09T01:48:07.995Z,6.25
2024-05-09T01:50:39.845Z,5.43
2024-05-09T01:53:15.307Z,5.85
2024-05-09T01:55:44.149Z,5.28
2024-05-09T01:58:11.964Z,5.05
2024-05-09T02:00:42.456Z,6.65
2024-05-09T02:03:15.635Z,6.20
2024-05-09T02:05:50.184Z,6.30
2024-05-09T02:08:19.993Z,6.38
2024-05-09T02:10:48.662Z,5.38
2024-05-09T02:13:16.858Z,5.40
2024-05-09T02:15:44.483Z,5.95
2024-05-09T02:18:12.402Z,5.78
2024-05-09T02:20:41.612Z,5.53
2024-05-09T02:23:10.179Z,6.97
2024-05-09T02:25:37.748Z,5.68
2024-05-09T02:28:05.325Z,5.68
2024-05-09T02:30:40.143Z,6.55
2024-05-09T02:33:12.157Z,5.82
2024-05-09T02:35:41.786Z,6.47
2024-05-09T02:38:13.118Z,6.13
2024-05-09T02:40:41.059Z,5.72
2024-05-09T02:43:10.676Z,6.60
2024-05-09T02:45:39.940Z,6.55
2024-05-09T02:48:10.532Z,5.50
2024-05-09T02:50:40.808Z,10.60
2024-05-09T02:53:09.698Z,10.82
2024-05-09T02:55:38.205Z,12.68
2024-05-09T02:58:07.972Z,15.07
2024-05-09T03:00:39.663Z,16.55
2024-05-09T03:03:11.139Z,17.20
2024-05-09T03:05:41.098Z,13.65
2024-05-09T03:08:09.074Z,12.38
2024-05-09T03:10:38.692Z,12.52
2024-05-09T03:13:15.290Z,12.88
2024-05-09T03:15:44.016Z,14.23
2024-05-09T03:18:12.205Z,15.30
2024-05-09T03:20:40.298Z,17.15
2024-05-09T03:23:09.562Z,14.93
2024-05-09T03:25:38.247Z,16.95
2024-05-09T03:28:06.058Z,14.02
2024-05-09T03:30:40.828Z,14.52
2024-05-09T03:33:19.250Z,11.80
2024-05-09T03:35:48.418Z,11.88
2024-05-09T03:38:16.435Z,11.38
2024-05-09T03:40:48.750Z,11.95
2024-05-09T03:43:17.419Z,12.57
2024-05-09T03:45:45.078Z,10.15
2024-05-09T03:48:12.901Z,11.48
2024-05-09T03:50:40.564Z,10.30
2024-05-09T03:53:11.279Z,11.07
2024-05-09T03:55:39.206Z,10.32
2024-05-09T03:58:08.115Z,12.38
2024-05-09T04:00:40.081Z,13.13
2024-05-09T04:03:11.129Z,11.65
2024-05-09T04:05:42.099Z,11.70
2024-05-09T04:08:11.107Z,10.60
2024-05-09T04:10:38.791Z,10.65
2024-05-09T04:13:06.194Z,11.35
2024-05-09T04:15:33.645Z,11.10
2024-05-09T04:18:01.935Z,11.93
2024-05-09T04:20:37.569Z,11.25
2024-05-09T04:23:09.539Z,12.38
2024-05-09T04:25:37.526Z,11.60
2024-05-09T04:28:05.644Z,12.00
2024-05-09T04:30:38.434Z,10.27
2024-05-09T04:33:11.047Z,10.40
2024-05-09T04:35:42.273Z,9.65
2024-05-09T04:38:10.201Z,10.68
2024-05-09T04:40:38.171Z,9.40
2024-05-09T04:43:06.975Z,10.55
2024-05-09T04:45:35.197Z,8.40
2024-05-09T04:48:03.357Z,9.38
2024-05-09T04:50:36.820Z,9.32
2024-05-09T04:53:10.989Z,8.65
2024-05-09T04:55:40.139Z,7.30
2024-05-09T04:58:09.427Z,7.45
2024-05-09T05:00:39.023Z,5.75
2024-05-09T05:03:14.626Z,5.32
2024-05-09T05:05:45.456Z,6.78
2024-05-09T05:08:18.601Z,6.30
2024-05-09T05:10:48.217Z,5.40
2024-05-09T05:13:21.213Z,4.70
2024-05-09T05:15:52.289Z,5.22
2024-05-09T05:18:19.978Z,5.20
2024-05-09T05:20:47.708Z,6.18
2024-05-09T05:23:16.931Z,6.13
2024-05-09T05:25:44.821Z,4.90
2024-05-09T05:28:12.251Z,4.88
2024-05-09T05:30:41.203Z,5.07
2024-05-09T05:33:11.860Z,5.00
2024-05-09T05:35:39.444Z,4.38
2024-05-09T05:38:08.194Z,4.30
2024-05-09T05:40:40.602Z,3.75
2024-05-09T05:43:16.206Z,4.20
2024-05-09T05:45:43.520Z,4.03
2024-05-09T05:48:11.022Z,3.92
2024-05-09T05:50:38.951Z,3.53
2024-05-09T05:53:08.405Z,3.70
2024-05-09T05:55:42.372Z,3.63
2024-05-09T05:58:11.015Z,3.58
2024-05-09T06:00:40.269Z,3.40
2024-05-09T06:03:10.052Z,3.70
2024-05-09T06:05:40.555Z,3.42
2024-05-09T06:08:08.952Z,3.47
2024-05-09T06:10:39.556Z,3.33
2024-05-09T06:13:12.279Z,3.42
2024-05-09T06:15:40.632Z,3.20
2024-05-09T06:18:10.168Z,3.00
2024-05-09T06:20:40.197Z,3.20
2024-05-09T06:23:09.373Z,2.92
2024-05-09T06:25:37.385Z,3.08
2024-05-09T06:28:05.197Z,3.25
2024-05-09T06:33:03.543Z,3.30
2024-05-09T06:35:31.512Z,3.13
2024-05-09T06:37:59.033Z,2.90
2024-05-09T06:40:35.896Z,2.70
2024-05-09T06:43:06.169Z,3.38
2024-05-09T06:45:33.520Z,3.40
2024-05-09T06:48:01.098Z,3.22
2024-05-09T06:50:35.705Z,3.20
2024-05-09T06:53:05.768Z,3.17
2024-05-09T06:55:33.179Z,3.17
2024-05-09T06:58:00.497Z,3.20
2024-05-09T07:00:35.564Z,2.95
2024-05-09T07:03:11.189Z,3.40
2024-05-09T07:05:40.029Z,3.40
2024-05-09T07:08:08.044Z,3.22
2024-05-09T07:10:36.637Z,3.13
2024-05-09T07:13:11.963Z,3.60
2024-05-09T07:15:39.759Z,3.13
2024-05-09T07:18:14.067Z,3.50
2024-05-09T07:20:42.436Z,4.25
2024-05-09T07:23:10.867Z,3.33
2024-05-09T07:25:39.188Z,3.50
2024-05-09T07:28:10.419Z,3.75
2024-05-09T07:30:37.720Z,2.95
2024-05-09T07:33:05.544Z,3.72
2024-05-09T07:35:33.356Z,3.50
2024-05-09T07:38:00.867Z,3.70
2024-05-09T07:40:34.835Z,3.65
2024-05-09T07:43:05.371Z,3.97
2024-05-09T07:52:24.054Z,3.80
2024-05-09T07:53:39.074Z,4.10
2024-05-09T07:56:10.164Z,4.88
2024-05-09T07:58:39.126Z,4.30
2024-05-09T08:01:06.817Z,5.53
2024-05-09T08:03:34.725Z,4.30
2024-05-09T08:06:02.287Z,4.03
2024-05-09T08:08:29.657Z,3.20
2024-05-09T08:10:57.102Z,3.78
2024-05-09T08:13:24.518Z,4.65
2024-05-09T08:15:52.647Z,4.00
2024-05-09T08:18:20.341Z,4.43
2024-05-09T08:20:49.849Z,5.38
2024-05-09T08:23:17.916Z,4.75
2024-05-09T08:25:45.238Z,4.50
2024-05-09T08:28:13.029Z,4.07
2024-05-09T08:30:40.648Z,3.85
2024-05-09T08:33:08.375Z,3.95
2024-05-09T08:35:36.306Z,3.92
2024-05-09T08:38:05.001Z,3.88
2024-05-09T08:40:36.006Z,4.30
2024-05-09T08:43:10.284Z,3.75
2024-05-09T08:45:43.886Z,3.70
2024-05-09T08:48:15.151Z,3.58
2024-05-09T08:50:45.000Z,3.53
2024-05-09T08:53:14.666Z,4.22
2024-05-09T08:55:43.777Z,3.80
2024-05-09T08:58:18.256Z,3.60
2024-05-09T09:00:46.825Z,3.78
2024-05-09T09:03:27.308Z,3.88
2024-05-09T09:06:02.201Z,3.22
2024-05-09T09:08:29.639Z,4.10
2024-05-09T09:11:00.265Z,3.75
2024-05-09T09:13:28.524Z,3.63
2024-05-09T09:15:57.989Z,3.70
2024-05-09T09:18:27.130Z,4.00
2024-05-09T09:20:55.070Z,3.58
2024-05-09T09:23:22.962Z,3.42
2024-05-09T09:25:52.090Z,3.80
2024-05-09T09:28:23.537Z,3.58
2024-05-09T09:30:51.261Z,3.47
2024-05-09T09:33:21.553Z,3.58
2024-05-09T09:35:48.996Z,3.58
2024-05-09T09:38:21.834Z,3.35
2024-05-09T09:40:50.872Z,3.78
2024-05-09T09:43:26.840Z,3.88
2024-05-09T09:46:00.169Z,4.10
2024-05-09T09:48:28.630Z,4.18
2024-05-09T09:50:57.299Z,3.90
2024-05-09T09:53:24.974Z,3.55
2024-05-09T09:55:54.023Z,3.67
2024-05-09T09:58:21.945Z,3.20
2024-05-09T10:00:49.465Z,3.33
2024-05-09T10:03:17.156Z,4.13
2024-05-09T10:05:47.083Z,3.35
2024-05-09T10:08:17.919Z,2.78
2024-05-09T10:10:48.945Z,3.15
2024-05-09T10:13:16.692Z,3.70
2024-05-09T10:15:54.692Z,3.08
2024-05-09T10:18:28.305Z,4.35
2024-05-09T10:20:58.045Z,4.28
2024-05-09T10:23:30.007Z,3.80
2024-05-09T10:26:05.572Z,3.80
2024-05-09T10:28:36.070Z,3.55
2024-05-09T10:31:11.546Z,3.53
2024-05-09T10:33:40.436Z,3.13
2024-05-09T10:36:22.141Z,3.15
2024-05-09T10:38:51.285Z,3.10
2024-05-09T10:41:26.922Z,3.45
2024-05-09T10:43:58.126Z,3.05
2024-05-09T10:46:26.231Z,2.75
2024-05-09T10:48:54.011Z,2.70
2024-05-09T10:51:21.786Z,2.75
2024-05-09T10:53:49.476Z,2.78
2024-05-09T10:56:17.568Z,2.30
2024-05-09T10:58:45.848Z,2.28
2024-05-09T11:01:14.847Z,2.22
2024-05-09T11:03:43.338Z,2.10
2024-05-09T11:06:11.863Z,2.00
2024-05-09T11:08:40.101Z,2.30
2024-05-09T11:11:08.877Z,2.30
2024-05-09T11:13:38.517Z,2.03
2024-05-09T11:16:16.807Z,2.10
2024-05-09T11:18:44.667Z,2.70
2024-05-09T11:21:15.203Z,2.20
2024-05-09T11:23:42.792Z,2.00
2024-05-09T11:26:11.149Z,1.65
2024-05-09T11:28:38.570Z,2.10
2024-05-09T11:31:08.362Z,2.78
2024-05-09T11:33:40.735Z,2.17
2024-05-09T11:36:09.364Z,2.10
2024-05-09T11:38:37.202Z,2.30
2024-05-09T11:41:06.219Z,2.20
2024-05-09T11:43:33.928Z,2.20
2024-05-09T11:46:03.439Z,2.90
2024-05-09T11:48:32.013Z,2.58
2024-05-09T11:50:59.647Z,2.40
2024-05-09T11:53:26.946Z,2.30
2024-05-09T11:55:57.603Z,2.10
2024-05-09T11:58:24.898Z,2.35
2024-05-09T12:00:52.579Z,2.53
2024-05-09T12:03:21.583Z,2.33
2024-05-09T12:05:49.734Z,2.80
2024-05-09T12:08:17.856Z,2.20
2024-05-09T12:10:46.045Z,2.60
2024-05-09T12:13:13.994Z,2.60
2024-05-09T12:15:42.700Z,2.17
2024-05-09T12:18:10.801Z,2.30
2024-05-09T12:20:40.005Z,2.47
2024-05-09T12:23:10.390Z,2.65
2024-05-09T12:25:42.239Z,2.20
2024-05-09T12:28:09.861Z,2.38
2024-05-09T12:30:41.411Z,2.40
2024-05-09T12:33:12.099Z,2.38
2024-05-09T12:35:44.114Z,2.40
2024-05-09T12:38:17.129Z,2.42
2024-05-09T12:43:12.343Z,2.58
2024-05-09T12:45:40.776Z,1.92
2024-05-09T12:48:12.469Z,2.47
2024-05-09T12:50:41.885Z,3.03
2024-05-09T12:53:09.927Z,2.47
2024-05-09T12:55:44.968Z,2.38
2024-05-09T12:58:22.753Z,2.17
2024-05-09T13:00:52.728Z,2.80
2024-05-09T13:03:20.899Z,2.28
2024-05-09T13:05:50.187Z,2.20
2024-05-09T13:08:17.918Z,2.20
2024-05-09T13:10:45.539Z,2.28
2024-05-09T13:13:13.582Z,2.50
2024-05-09T13:15:41.634Z,2.30
2024-05-09T13:18:12.404Z,2.10
2024-05-09T13:23:08.663Z,1.70
2024-05-09T13:25:39.081Z,2.50
2024-05-09T13:28:08.092Z,2.00
2024-05-09T13:30:40.631Z,1.88
2024-05-09T13:33:11.914Z,2.70
2024-05-09T13:38:14.030Z,2.13
2024-05-09T13:40:41.882Z,2.50
2024-05-09T13:43:09.529Z,2.13
2024-05-09T13:45:37.334Z,2.78
2024-05-09T13:48:07.111Z,2.30
2024-05-09T13:50:36.615Z,2.30
2024-05-09T13:53:07.033Z,2.35
2024-05-09T13:55:37.898Z,1.80
2024-05-09T13:58:09.638Z,1.73
2024-05-09T14:00:45.950Z,2.38
2024-05-09T14:03:18.892Z,2.53
2024-05-09T14:05:48.404Z,2.22
2024-05-09T14:08:20.297Z,2.20
2024-05-09T14:10:49.606Z,2.15
2024-05-09T14:13:17.496Z,2.15
2024-05-09T14:15:46.290Z,1.95
2024-05-09T14:18:14.926Z,2.15
2024-05-09T14:20:43.503Z,2.05
2024-05-09T14:23:11.306Z,2.35
2024-05-09T14:25:42.799Z,2.30
2024-05-09T14:28:12.980Z,1.77
2024-05-09T14:30:50.335Z,2.50
2024-05-09T14:33:23.765Z,2.25
2024-05-09T14:35:51.469Z,2.47
2024-05-09T14:38:19.163Z,2.60
2024-05-09T14:40:47.525Z,2.00
2024-05-09T14:43:18.825Z,2.38
2024-05-09T14:45:46.746Z,2.30
2024-05-09T14:48:20.532Z,2.20
2024-05-09T14:50:51.193Z,2.33
2024-05-09T14:53:18.613Z,2.17
2024-05-09T14:55:46.260Z,2.40
2024-05-09T14:58:14.171Z,2.58
2024-05-09T15:00:48.206Z,2.10
2024-05-09T15:03:19.751Z,2.28
2024-05-09T15:05:48.703Z,2.20
2024-05-09T15:08:18.678Z,2.00
2024-05-09T15:10:50.112Z,1.75
2024-05-09T15:13:18.406Z,2.20
2024-05-09T15:15:46.039Z,2.15
2024-05-09T15:18:14.689Z,2.05
2024-05-09T15:20:45.091Z,1.80
2024-05-09T15:25:40.383Z,1.77
2024-05-09T15:28:08.466Z,1.70
2024-05-09T15:30:36.720Z,1.75
2024-05-09T15:33:05.192Z,1.90
2024-05-09T15:35:33.855Z,1.75
2024-05-09T15:38:03.247Z,1.95
2024-05-09T15:40:37.925Z,1.83
2024-05-09T15:48:04.692Z,1.98
2024-05-09T15:50:37.749Z,2.00
2024-05-09T15:53:09.876Z,1.95
2024-05-09T15:55:38.247Z,1.88
2024-05-09T15:58:07.104Z,2.00
2024-05-09T16:00:39.482Z,2.00
2024-05-09T16:03:14.418Z,1.90
2024-05-09T16:05:46.660Z,2.53
2024-05-09T16:08:16.029Z,2.17
2024-05-09T16:10:46.303Z,2.50
2024-05-09T16:13:15.384Z,1.83
2024-05-09T16:15:49.032Z,2.30
2024-05-09T16:18:17.463Z,1.70
2024-05-09T16:20:47.216Z,2.70
2024-05-09T16:23:17.480Z,2.00
2024-05-09T16:25:48.394Z,2.50
2024-05-09T16:28:16.870Z,1.75
2024-05-09T16:30:44.735Z,2.45
2024-05-09T16:33:12.760Z,1.60
2024-05-09T16:35:43.957Z,1.25
2024-05-09T16:38:11.573Z,2.20
2024-05-09T16:40:41.042Z,2.22
2024-05-09T16:43:10.750Z,2.17
2024-05-09T16:45:40.639Z,2.42
2024-05-09T16:48:09.068Z,1.40
2024-05-09T16:50:38.929Z,1.38
2024-05-09T16:53:07.543Z,1.77
2024-05-09T16:55:36.176Z,1.90
2024-05-09T16:58:04.798Z,1.83
2024-05-09T17:00:40.249Z,2.80
2024-05-09T17:03:12.187Z,1.77
2024-05-09T17:05:41.003Z,2.50
2024-05-09T17:08:09.122Z,1.70
2024-05-09T17:10:37.192Z,1.63
2024-05-09T17:13:06.870Z,1.67
2024-05-09T17:15:36.799Z,1.80
2024-05-09T17:18:06.063Z,1.95
2024-05-09T17:20:36.386Z,1.60
2024-05-09T17:23:12.816Z,1.70
2024-05-09T17:25:41.101Z,1.67
2024-05-09T17:28:09.537Z,1.80
2024-05-09T17:30:39.734Z,1.83
2024-05-09T17:33:10.264Z,1.55
2024-05-09T17:35:39.027Z,2.05
2024-05-09T17:38:09.043Z,1.63
2024-05-09T17:40:38.269Z,1.90
2024-05-09T17:43:08.956Z,1.65
2024-05-09T17:45:39.221Z,1.50
2024-05-09T17:48:09.679Z,1.70
2024-05-09T17:50:38.091Z,1.50
2024-05-09T17:53:07.099Z,1.67
2024-05-09T17:55:35.543Z,1.60
2024-05-09T17:58:04.114Z,1.60
2024-05-09T18:00:39.443Z,2.03
2024-05-09T18:03:13.791Z,1.60
2024-05-09T18:05:43.425Z,1.45
2024-05-09T18:08:11.951Z,2.00
2024-05-09T18:10:43.160Z,2.22
2024-05-09T18:13:12.368Z,1.40
2024-05-09T18:15:40.196Z,1.42
2024-05-09T18:18:09.051Z,1.55
2024-05-09T18:20:42.990Z,1.50
2024-05-09T18:23:15.176Z,1.67
2024-05-09T18:25:44.040Z,1.70
2024-05-09T18:28:13.871Z,1.90
2024-05-09T18:30:41.602Z,2.70
2024-05-09T18:33:11.272Z,1.98
2024-05-09T18:35:39.313Z,2.20
2024-05-09T18:38:06.825Z,2.10
2024-05-09T18:40:38.523Z,2.30
2024-05-09T18:43:08.817Z,3.50
2024-05-09T18:45:42.684Z,3.45
2024-05-09T18:48:10.572Z,5.03
2024-05-09T18:50:40.576Z,2.80
2024-05-09T18:53:13.683Z,1.80
2024-05-09T18:55:43.774Z,2.00
2024-05-09T18:58:15.293Z,1.98
2024-05-09T19:00:45.380Z,2.08
2024-05-09T19:03:16.192Z,2.13
2024-05-09T19:05:45.352Z,1.50
2024-05-09T19:08:14.771Z,1.90
2024-05-09T19:10:42.443Z,2.40
2024-05-09T19:13:12.741Z,1.73
2024-05-09T19:15:42.772Z,1.90
2024-05-09T19:18:13.256Z,1.80
2024-05-09T19:20:41.481Z,1.63
2024-05-09T19:23:08.794Z,2.08
2024-05-09T19:25:36.685Z,1.48
2024-05-09T19:28:05.565Z,1.50
2024-05-09T19:30:39.373Z,1.73
2024-05-09T19:33:11.866Z,2.25
2024-05-09T19:38:07.840Z,2.00
2024-05-09T19:40:35.918Z,2.10
2024-05-09T19:43:04.999Z,2.17
2024-05-09T19:45:34.448Z,2.22
2024-05-09T19:48:02.824Z,2.50
2024-05-09T19:50:37.922Z,3.45
2024-05-09T19:53:11.337Z,2.65
2024-05-09T19:55:40.924Z,2.55
2024-05-09T19:58:09.591Z,2.50
2024-05-09T20:00:40.770Z,2.70
2024-05-09T20:03:11.511Z,3.45
2024-05-09T20:05:39.729Z,4.25
2024-05-09T20:08:07.725Z,3.00
2024-05-09T20:10:36.368Z,3.45
2024-05-09T20:13:07.930Z,2.88
2024-05-09T20:15:37.096Z,2.70
2024-05-09T20:18:05.541Z,3.03
2024-05-09T20:20:39.263Z,3.05
2024-05-09T20:23:10.285Z,4.07
2024-05-09T20:25:37.843Z,3.85
2024-05-09T20:28:09.051Z,3.60
2024-05-09T20:30:36.951Z,3.38
2024-05-09T20:33:07.572Z,3.50
2024-05-09T20:35:36.337Z,3.92
2024-05-09T20:38:04.412Z,3.60
2024-05-09T20:40:36.183Z,3.85
2024-05-09T20:43:08.446Z,3.60
2024-05-09T20:45:36.273Z,3.17
2024-05-09T20:48:04.038Z,3.85
2024-05-09T20:50:38.141Z,3.58
2024-05-09T20:53:14.244Z,3.85
2024-05-09T20:55:43.483Z,3.60
2024-05-09T20:58:11.429Z,3.00
2024-05-09T21:00:42.788Z,3.03
2024-05-09T21:03:13.603Z,3.55
2024-05-09T21:05:42.071Z,3.40
2024-05-09T21:08:09.453Z,3.40
2024-05-09T21:10:37.530Z,3.30
2024-05-09T21:13:06.611Z,3.20
2024-05-09T21:15:35.124Z,3.30
2024-05-09T21:18:03.097Z,3.58
2024-05-09T21:20:33.310Z,3.40
2024-05-09T21:23:02.147Z,3.38
2024-05-09T21:28:07.547Z,3.67
2024-05-09T21:30:41.493Z,3.80
2024-05-09T21:33:12.430Z,3.78
2024-05-09T21:35:42.069Z,3.40
2024-05-09T21:38:09.505Z,3.58
2024-05-09T21:40:38.105Z,4.13
2024-05-09T21:43:09.694Z,4.10
2024-05-09T21:45:38.441Z,4.35
2024-05-09T21:48:07.183Z,4.07
2024-05-09T21:50:40.327Z,3.80
2024-05-09T21:53:10.420Z,4.90
2024-05-09T21:55:37.835Z,5.75
2024-05-09T21:58:05.643Z,6.07
2024-05-09T22:00:37.687Z,5.70
2024-05-09T22:03:11.440Z,5.80
2024-05-09T22:05:43.701Z,7.38
2024-05-09T22:08:11.278Z,8.48
2024-05-09T22:10:38.878Z,7.72
2024-05-09T22:13:07.323Z,6.43
2024-05-09T22:15:40.122Z,6.50
2024-05-09T22:18:09.962Z,6.28
2024-05-09T22:20:44.881Z,6.78
2024-05-09T22:23:13.816Z,5.72
2024-05-09T22:25:41.290Z,6.05
2024-05-09T22:28:08.938Z,4.53
2024-05-09T22:30:39.279Z,6.68
2024-05-09T22:33:10.331Z,6.00
2024-05-09T22:35:39.590Z,6.00
2024-05-09T22:38:07.018Z,4.60
2024-05-09T22:40:45.191Z,4.05
2024-05-09T22:43:24.276Z,3.30
2024-05-09T22:45:55.041Z,2.88
2024-05-09T22:48:24.068Z,2.40
2024-05-09T22:50:52.713Z,3.28
2024-05-09T22:53:23.922Z,3.10
2024-05-09T22:55:51.392Z,3.30
2024-05-09T22:58:22.521Z,2.90
2024-05-09T23:00:50.205Z,3.40
2024-05-09T23:03:21.245Z,2.85
2024-05-09T23:05:49.279Z,3.10
2024-05-09T23:08:16.630Z,3.45
2024-05-09T23:10:43.945Z,2.70
2024-05-09T23:13:11.289Z,3.72
2024-05-09T23:15:39.059Z,3.88
2024-05-09T23:18:07.306Z,3.67
2024-05-09T23:20:39.688Z,3.17
2024-05-09T23:23:09.206Z,3.33
2024-05-09T23:25:37.916Z,3.58
2024-05-09T23:28:07.083Z,2.33
2024-05-09T23:30:38.830Z,2.80
2024-05-09T23:33:08.933Z,3.22
2024-05-09T23:35:36.480Z,3.50
2024-05-09T23:38:04.037Z,3.33
2024-05-09T23:40:38.477Z,3.83
2024-05-09T23:43:09.389Z,4.25
2024-05-09T23:45:37.329Z,3.97
2024-05-09T23:48:05.531Z,2.92
2024-05-09T23:50:37.010Z,3.20
2024-05-09T23:53:08.646Z,2.78
2024-05-09T23:55:37.409Z,3.33
2024-05-09T23:58:05.269Z,3.50
